Aérodrome :
LOGIN :

S'inscrire | Disclaimer

   EN    FR    IT 

 










Légende :    VFR   VFR Marginal   IFR   IFR Intensif   IFR Très Intensif
Visi : 
Plafond : 
>= 8 km
>= 3000ft
5 à 8 km
1000 à 3000 ft
1500m à 5 km
500 à 1000 ft
800 à 1500m
200 à 500 ft
< 800m
< 200 ft
Symboles :   Orages  Brouillard  Fortes neiges  Fortes précipitations  Vent > 20 kt
SIGMETs :   Divers  Orages  Givrage  Turbulence  Onde Orograph.  Cendres Volcan.






- Altitude de l'aérodrome : 52 ft
- Code IATA : RNN


EKRN - Bornholm Ronne

DERNIER METAR :
  • 281620Z AUTO 29005KT 9999 BKN018/// BKN074/// BKN092/// 15/14 Q1021

METARs EXPIRÉS :
  • 281550Z AUTO 28006KT 9999 BKN019/// BKN076/// 15/14 Q1021
  • 281520Z AUTO 27004KT 9999 FEW019/// BKN077/// BKN100/// 15/14 Q1021
  • 281450Z AUTO 28006KT 9999 SCT072/// BKN100/// 15/14 Q1021
  • 281420Z AUTO 28007KT 9999 FEW013/// SCT100/// 15/14 Q1021
  • 281350Z AUTO 28006KT 9999 FEW003/// FEW022/// BKN056/// 15/14 Q1021

TAF TAF EKRN
Valide du 28 à 15h jusqu'au 28 à 22h UTC


281426Z 2815/2822 30006KT 9999 SCT010 BKN020



MET'MAP, la Météo Aéronautique d'un coup d'oeil ! - Copyright ORBIFLY Décembre 2007 - Disclaimer

ORBIFLY MET'MAP TEAM :

Programmation & Développement : Alexandra Zaïnal
Sur une idée originale de : Baudouin d'Aumeries
Assistance à la programmation : Marc-Olivier Méhu
Soutien technique & logistique : Manuel Goepfert

Contact : metmap@orbifly.com




SOURCES & CREDITS :

   NOAA